sensor_id;sensor_type;location;lat;lon;timestamp;pressure;altitude;pressure_sealevel;temperature;humidity
24336;BME280;33098;52.400;16.880;2023-02-18T00:01:15;100192.72;;;7.48;73.72
24336;BME280;33098;52.400;16.880;2023-02-18T00:03:42;100209.15;;;7.50;74.06
24336;BME280;33098;52.400;16.880;2023-02-18T00:06:22;100207.72;;;7.46;73.33
24336;BME280;33098;52.400;16.880;2023-02-18T00:08:51;100203.66;;;7.46;74.24
24336;BME280;33098;52.400;16.880;2023-02-18T00:11:19;100206.67;;;7.43;73.53
24336;BME280;33098;52.400;16.880;2023-02-18T00:13:57;100211.77;;;7.38;73.46
24336;BME280;33098;52.400;16.880;2023-02-18T00:16:26;100208.73;;;7.39;74.32
24336;BME280;33098;52.400;16.880;2023-02-18T00:18:57;100228.68;;;7.33;72.76
24336;BME280;33098;52.400;16.880;2023-02-18T00:21:24;100224.96;;;7.26;73.13
24336;BME280;33098;52.400;16.880;2023-02-18T00:23:50;100232.34;;;7.24;73.18
24336;BME280;33098;52.400;16.880;2023-02-18T00:26:18;100221.63;;;7.17;73.41
24336;BME280;33098;52.400;16.880;2023-02-18T00:28:46;100217.21;;;7.15;73.51
24336;BME280;33098;52.400;16.880;2023-02-18T00:31:20;100209.23;;;7.15;73.72
24336;BME280;33098;52.400;16.880;2023-02-18T00:33:46;100220.79;;;7.14;73.65
24336;BME280;33098;52.400;16.880;2023-02-18T00:36:15;100222.41;;;7.06;73.01
24336;BME280;33098;52.400;16.880;2023-02-18T00:38:44;100215.68;;;7.01;73.72
24336;BME280;33098;52.400;16.880;2023-02-18T00:41:11;100219.08;;;7.02;74.07
24336;BME280;33098;52.400;16.880;2023-02-18T00:43:38;100223.83;;;7.00;74.03
24336;BME280;33098;52.400;16.880;2023-02-18T00:46:05;100220.15;;;6.97;74.16
24336;BME280;33098;52.400;16.880;2023-02-18T00:48:31;100218.34;;;6.95;74.46
24336;BME280;33098;52.400;16.880;2023-02-18T00:50:58;100222.92;;;6.95;74.60
24336;BME280;33098;52.400;16.880;2023-02-18T00:53:27;100224.90;;;6.95;74.87
24336;BME280;33098;52.400;16.880;2023-02-18T00:55:54;100233.67;;;6.93;74.64
24336;BME280;33098;52.400;16.880;2023-02-18T00:58:21;100235.88;;;6.94;74.98
24336;BME280;33098;52.400;16.880;2023-02-18T01:00:48;100245.77;;;6.92;74.96
24336;BME280;33098;52.400;16.880;2023-02-18T01:03:14;100258.39;;;6.87;74.46
24336;BME280;33098;52.400;16.880;2023-02-18T01:05:43;100247.00;;;6.86;74.88
24336;BME280;33098;52.400;16.880;2023-02-18T01:08:10;100255.33;;;6.80;74.57
24336;BME280;33098;52.400;16.880;2023-02-18T01:10:41;100248.51;;;6.79;74.91
24336;BME280;33098;52.400;16.880;2023-02-18T01:13:08;100252.44;;;6.79;74.97
24336;BME280;33098;52.400;16.880;2023-02-18T01:15:35;100257.92;;;6.76;74.81
24336;BME280;33098;52.400;16.880;2023-02-18T01:18:02;100253.17;;;6.76;74.96
24336;BME280;33098;52.400;16.880;2023-02-18T01:20:29;100256.95;;;6.77;75.42
24336;BME280;33098;52.400;16.880;2023-02-18T01:22:56;100255.65;;;6.76;75.17
24336;BME280;33098;52.400;16.880;2023-02-18T01:25:22;100254.00;;;6.70;74.94
24336;BME280;33098;52.400;16.880;2023-02-18T01:27:49;100245.13;;;6.72;75.39
24336;BME280;33098;52.400;16.880;2023-02-18T01:30:16;100250.14;;;6.74;75.61
24336;BME280;33098;52.400;16.880;2023-02-18T01:32:44;100252.31;;;6.73;75.78
24336;BME280;33098;52.400;16.880;2023-02-18T01:35:13;100252.90;;;6.71;75.62
24336;BME280;33098;52.400;16.880;2023-02-18T01:37:40;100255.52;;;6.66;75.39
24336;BME280;33098;52.400;16.880;2023-02-18T01:40:09;100257.26;;;6.64;75.51
24336;BME280;33098;52.400;16.880;2023-02-18T01:42:35;100258.88;;;6.61;75.49
24336;BME280;33098;52.400;16.880;2023-02-18T01:50:34;100241.10;;;6.52;75.99
24336;BME280;33098;52.400;16.880;2023-02-18T01:53:02;100241.90;;;6.48;76.13
24336;BME280;33098;52.400;16.880;2023-02-18T01:55:31;100237.85;;;6.43;76.17
24336;BME280;33098;52.400;16.880;2023-02-18T01:57:58;100234.09;;;6.44;76.55
24336;BME280;33098;52.400;16.880;2023-02-18T02:00:25;100243.04;;;6.39;76.26
24336;BME280;33098;52.400;16.880;2023-02-18T02:02:52;100242.42;;;6.32;76.36
24336;BME280;33098;52.400;16.880;2023-02-18T02:05:20;100233.23;;;6.32;76.71
24336;BME280;33098;52.400;16.880;2023-02-18T02:07:53;100233.45;;;6.32;76.98
24336;BME280;33098;52.400;16.880;2023-02-18T02:10:20;100231.11;;;6.32;76.98
24336;BME280;33098;52.400;16.880;2023-02-18T02:15:49;100234.64;;;6.24;77.00
24336;BME280;33098;52.400;16.880;2023-02-18T02:18:27;100232.71;;;6.21;77.28
24336;BME280;33098;52.400;16.880;2023-02-18T02:26:59;100227.77;;;6.13;77.73
24336;BME280;33098;52.400;16.880;2023-02-18T02:35:26;100234.28;;;6.15;77.91
24336;BME280;33098;52.400;16.880;2023-02-18T02:38:10;100234.52;;;6.14;77.86
24336;BME280;33098;52.400;16.880;2023-02-18T02:40:59;100235.15;;;6.13;78.09
24336;BME280;33098;52.400;16.880;2023-02-18T02:43:50;100242.33;;;6.14;78.17
24336;BME280;33098;52.400;16.880;2023-02-18T02:46:26;100247.79;;;6.17;78.36
24336;BME280;33098;52.400;16.880;2023-02-18T02:49:02;100247.84;;;6.16;78.18
24336;BME280;33098;52.400;16.880;2023-02-18T02:51:59;100256.66;;;6.18;78.49
24336;BME280;33098;52.400;16.880;2023-02-18T02:54:29;100254.30;;;6.25;78.70
24336;BME280;33098;52.400;16.880;2023-02-18T03:00:00;100264.02;;;6.30;78.50
24336;BME280;33098;52.400;16.880;2023-02-18T03:02:35;100264.95;;;6.32;78.24
24336;BME280;33098;52.400;16.880;2023-02-18T03:08:28;100267.05;;;6.27;78.12
24336;BME280;33098;52.400;16.880;2023-02-18T03:11:02;100271.48;;;6.32;78.14
24336;BME280;33098;52.400;16.880;2023-02-18T03:24:27;100288.06;;;6.21;78.06
24336;BME280;33098;52.400;16.880;2023-02-18T03:27:01;100283.23;;;6.27;77.83
24336;BME280;33098;52.400;16.880;2023-02-18T03:29:30;100288.77;;;6.26;77.62
24336;BME280;33098;52.400;16.880;2023-02-18T03:32:02;100294.16;;;6.21;77.37
24336;BME280;33098;52.400;16.880;2023-02-18T03:34:35;100285.42;;;6.24;77.63
24336;BME280;33098;52.400;16.880;2023-02-18T03:37:03;100290.00;;;6.32;77.76
24336;BME280;33098;52.400;16.880;2023-02-18T03:39:33;100301.95;;;6.35;77.31
24336;BME280;33098;52.400;16.880;2023-02-18T03:42:00;100296.52;;;6.34;77.18
24336;BME280;33098;52.400;16.880;2023-02-18T03:44:29;100305.05;;;6.39;77.49
24336;BME280;33098;52.400;16.880;2023-02-18T03:46:56;100307.78;;;6.37;76.70
24336;BME280;33098;52.400;16.880;2023-02-18T03:49:22;100298.94;;;6.35;76.97
24336;BME280;33098;52.400;16.880;2023-02-18T03:51:49;100307.61;;;6.37;76.81
24336;BME280;33098;52.400;16.880;2023-02-18T03:54:15;100303.40;;;6.34;76.35
24336;BME280;33098;52.400;16.880;2023-02-18T03:56:42;100296.40;;;6.31;76.66
24336;BME280;33098;52.400;16.880;2023-02-18T03:59:10;100301.02;;;6.36;77.05
24336;BME280;33098;52.400;16.880;2023-02-18T04:01:37;100308.45;;;6.38;76.72
24336;BME280;33098;52.400;16.880;2023-02-18T04:04:04;100310.50;;;6.34;76.20
24336;BME280;33098;52.400;16.880;2023-02-18T04:06:30;100316.55;;;6.32;76.55
24336;BME280;33098;52.400;16.880;2023-02-18T04:08:57;100315.32;;;6.30;76.18
24336;BME280;33098;52.400;16.880;2023-02-18T04:11:23;100318.36;;;6.27;76.19
24336;BME280;33098;52.400;16.880;2023-02-18T04:13:50;100318.79;;;6.25;76.13
24336;BME280;33098;52.400;16.880;2023-02-18T04:16:17;100320.40;;;6.22;75.79
24336;BME280;33098;52.400;16.880;2023-02-18T04:18:43;100315.69;;;6.18;75.71
24336;BME280;33098;52.400;16.880;2023-02-18T04:21:10;100311.77;;;6.19;75.94
24336;BME280;33098;52.400;16.880;2023-02-18T04:23:37;100319.95;;;6.21;76.04
24336;BME280;33098;52.400;16.880;2023-02-18T04:26:03;100316.23;;;6.24;76.22
24336;BME280;33098;52.400;16.880;2023-02-18T04:28:30;100321.44;;;6.22;75.84
24336;BME280;33098;52.400;16.880;2023-02-18T04:30:56;100323.01;;;6.23;76.01
24336;BME280;33098;52.400;16.880;2023-02-18T04:33:23;100323.13;;;6.23;75.92
24336;BME280;33098;52.400;16.880;2023-02-18T04:35:50;100325.30;;;6.26;76.16
24336;BME280;33098;52.400;16.880;2023-02-18T04:38:16;100326.52;;;6.20;75.69
24336;BME280;33098;52.400;16.880;2023-02-18T04:40:43;100327.27;;;6.19;75.97
24336;BME280;33098;52.400;16.880;2023-02-18T04:43:09;100328.00;;;6.16;75.73
24336;BME280;33098;52.400;16.880;2023-02-18T04:45:36;100326.95;;;6.10;75.62
24336;BME280;33098;52.400;16.880;2023-02-18T04:48:03;100323.14;;;6.09;75.90
24336;BME280;33098;52.400;16.880;2023-02-18T04:50:29;100326.36;;;6.08;76.01
24336;BME280;33098;52.400;16.880;2023-02-18T04:52:56;100326.55;;;6.11;76.22
24336;BME280;33098;52.400;16.880;2023-02-18T04:55:22;100332.36;;;6.11;76.09
24336;BME280;33098;52.400;16.880;2023-02-18T04:57:49;100333.22;;;6.11;76.25
24336;BME280;33098;52.400;16.880;2023-02-18T05:00:17;100332.67;;;6.15;76.43
24336;BME280;33098;52.400;16.880;2023-02-18T05:02:44;100335.13;;;6.15;76.21
24336;BME280;33098;52.400;16.880;2023-02-18T05:05:12;100350.86;;;6.11;76.05
24336;BME280;33098;52.400;16.880;2023-02-18T05:07:38;100338.92;;;6.04;76.07
24336;BME280;33098;52.400;16.880;2023-02-18T05:10:11;100344.97;;;6.07;76.39
24336;BME280;33098;52.400;16.880;2023-02-18T05:12:39;100355.79;;;6.02;76.10
24336;BME280;33098;52.400;16.880;2023-02-18T05:15:06;100353.43;;;5.97;76.21
24336;BME280;33098;52.400;16.880;2023-02-18T05:17:33;100349.60;;;5.96;76.57
24336;BME280;33098;52.400;16.880;2023-02-18T05:20:00;100359.26;;;6.00;76.82
24336;BME280;33098;52.400;16.880;2023-02-18T05:22:26;100366.23;;;6.01;76.66
24336;BME280;33098;52.400;16.880;2023-02-18T05:24:53;100380.43;;;5.99;76.61
24336;BME280;33098;52.400;16.880;2023-02-18T05:27:19;100385.27;;;5.98;76.36
24336;BME280;33098;52.400;16.880;2023-02-18T05:29:46;100385.10;;;5.95;76.33
24336;BME280;33098;52.400;16.880;2023-02-18T05:32:12;100395.30;;;5.95;76.23
24336;BME280;33098;52.400;16.880;2023-02-18T05:34:39;100385.02;;;5.93;76.18
24336;BME280;33098;52.400;16.880;2023-02-18T05:37:06;100379.64;;;5.86;76.34
24336;BME280;33098;52.400;16.880;2023-02-18T05:39:32;100369.67;;;5.82;76.67
24336;BME280;33098;52.400;16.880;2023-02-18T05:41:59;100372.95;;;5.86;77.13
24336;BME280;33098;52.400;16.880;2023-02-18T05:44:25;100380.23;;;5.91;77.15
24336;BME280;33098;52.400;16.880;2023-02-18T05:47:02;100382.64;;;5.89;77.07
24336;BME280;33098;52.400;16.880;2023-02-18T05:49:30;100379.52;;;5.94;77.27
24336;BME280;33098;52.400;16.880;2023-02-18T05:51:57;100389.02;;;5.91;76.85
24336;BME280;33098;52.400;16.880;2023-02-18T05:54:24;100379.27;;;5.86;76.82
24336;BME280;33098;52.400;16.880;2023-02-18T05:56:51;100379.91;;;5.81;77.00
24336;BME280;33098;52.400;16.880;2023-02-18T05:59:19;100382.82;;;5.77;76.94
24336;BME280;33098;52.400;16.880;2023-02-18T06:01:46;100387.05;;;5.80;77.29
24336;BME280;33098;52.400;16.880;2023-02-18T06:04:13;100386.45;;;5.87;77.40
24336;BME280;33098;52.400;16.880;2023-02-18T06:06:40;100392.56;;;5.88;77.33
24336;BME280;33098;52.400;16.880;2023-02-18T06:09:07;100390.66;;;5.90;77.33
24336;BME280;33098;52.400;16.880;2023-02-18T06:11:35;100384.05;;;5.92;77.35
24336;BME280;33098;52.400;16.880;2023-02-18T06:14:02;100390.73;;;5.92;77.23
24336;BME280;33098;52.400;16.880;2023-02-18T06:16:29;100394.71;;;5.87;77.15
24336;BME280;33098;52.400;16.880;2023-02-18T06:18:56;100403.02;;;5.83;77.28
24336;BME280;33098;52.400;16.880;2023-02-18T06:21:23;100406.61;;;5.80;77.52
24336;BME280;33098;52.400;16.880;2023-02-18T06:23:49;100407.16;;;5.85;77.77
24336;BME280;33098;52.400;16.880;2023-02-18T06:26:16;100413.35;;;5.85;77.78
24336;BME280;33098;52.400;16.880;2023-02-18T06:28:42;100416.97;;;5.80;77.87
24336;BME280;33098;52.400;16.880;2023-02-18T06:31:09;100417.89;;;5.80;78.06
24336;BME280;33098;52.400;16.880;2023-02-18T06:33:36;100422.27;;;5.77;78.31
24336;BME280;33098;52.400;16.880;2023-02-18T06:36:07;100425.81;;;5.73;78.34
24336;BME280;33098;52.400;16.880;2023-02-18T06:38:39;100428.52;;;5.72;78.62
24336;BME280;33098;52.400;16.880;2023-02-18T06:41:06;100427.75;;;5.73;78.75
24336;BME280;33098;52.400;16.880;2023-02-18T06:43:33;100429.42;;;5.72;78.90
24336;BME280;33098;52.400;16.880;2023-02-18T06:45:59;100426.09;;;5.75;78.99
24336;BME280;33098;52.400;16.880;2023-02-18T06:48:26;100429.08;;;5.81;79.24
24336;BME280;33098;52.400;16.880;2023-02-18T06:50:53;100431.78;;;5.83;78.90
24336;BME280;33098;52.400;16.880;2023-02-18T06:53:20;100435.64;;;5.77;78.87
24336;BME280;33098;52.400;16.880;2023-02-18T06:55:46;100438.92;;;5.78;79.06
24336;BME280;33098;52.400;16.880;2023-02-18T06:58:14;100442.25;;;5.81;79.03
24336;BME280;33098;52.400;16.880;2023-02-18T07:00:41;100443.26;;;5.82;79.07
24336;BME280;33098;52.400;16.880;2023-02-18T07:03:10;100438.30;;;5.89;79.29
24336;BME280;33098;52.400;16.880;2023-02-18T07:05:37;100438.85;;;5.94;79.05
24336;BME280;33098;52.400;16.880;2023-02-18T07:08:04;100441.27;;;5.98;79.05
24336;BME280;33098;52.400;16.880;2023-02-18T07:10:30;100436.39;;;6.04;79.10
24336;BME280;33098;52.400;16.880;2023-02-18T07:12:57;100435.48;;;6.11;78.88
24336;BME280;33098;52.400;16.880;2023-02-18T07:15:23;100442.19;;;6.07;78.42
24336;BME280;33098;52.400;16.880;2023-02-18T07:17:52;100437.95;;;6.07;78.53
24336;BME280;33098;52.400;16.880;2023-02-18T07:20:20;100437.14;;;6.12;78.62
24336;BME280;33098;52.400;16.880;2023-02-18T07:22:47;100437.48;;;6.18;78.70
24336;BME280;33098;52.400;16.880;2023-02-18T07:25:13;100443.23;;;6.19;78.16
24336;BME280;33098;52.400;16.880;2023-02-18T07:27:40;100445.17;;;6.19;77.83
24336;BME280;33098;52.400;16.880;2023-02-18T07:30:07;100448.33;;;6.22;78.13
24336;BME280;33098;52.400;16.880;2023-02-18T07:32:34;100448.74;;;6.24;77.63
24336;BME280;33098;52.400;16.880;2023-02-18T07:35:01;100443.12;;;6.21;77.44
24336;BME280;33098;52.400;16.880;2023-02-18T07:37:27;100437.47;;;6.15;77.17
24336;BME280;33098;52.400;16.880;2023-02-18T07:39:54;100434.82;;;6.15;77.53
24336;BME280;33098;52.400;16.880;2023-02-18T07:42:21;100435.60;;;6.14;77.21
24336;BME280;33098;52.400;16.880;2023-02-18T07:44:49;100437.61;;;6.13;77.26
24336;BME280;33098;52.400;16.880;2023-02-18T07:47:16;100438.20;;;6.09;77.13
24336;BME280;33098;52.400;16.880;2023-02-18T07:49:46;100438.46;;;6.13;77.44
24336;BME280;33098;52.400;16.880;2023-02-18T07:52:14;100433.02;;;6.19;77.32
24336;BME280;33098;52.400;16.880;2023-02-18T07:54:41;100439.71;;;6.19;76.94
24336;BME280;33098;52.400;16.880;2023-02-18T07:57:07;100439.19;;;6.19;76.76
24336;BME280;33098;52.400;16.880;2023-02-18T07:59:34;100440.55;;;6.26;76.93
24336;BME280;33098;52.400;16.880;2023-02-18T08:02:01;100446.35;;;6.29;76.79
24336;BME280;33098;52.400;16.880;2023-02-18T08:04:27;100446.18;;;6.31;76.70
24336;BME280;33098;52.400;16.880;2023-02-18T08:06:54;100444.92;;;6.35;76.39
24336;BME280;33098;52.400;16.880;2023-02-18T08:09:20;100444.55;;;6.38;76.27
24336;BME280;33098;52.400;16.880;2023-02-18T08:11:47;100441.70;;;6.38;76.08
24336;BME280;33098;52.400;16.880;2023-02-18T08:14:13;100428.41;;;6.43;76.14
24336;BME280;33098;52.400;16.880;2023-02-18T08:16:40;100423.89;;;6.45;75.69
24336;BME280;33098;52.400;16.880;2023-02-18T08:19:06;100421.84;;;6.46;75.74
24336;BME280;33098;52.400;16.880;2023-02-18T08:21:33;100431.39;;;6.52;75.80
24336;BME280;33098;52.400;16.880;2023-02-18T08:24:00;100426.34;;;6.53;75.25
24336;BME280;33098;52.400;16.880;2023-02-18T08:26:27;100426.14;;;6.57;75.23
24336;BME280;33098;52.400;16.880;2023-02-18T08:28:54;100426.38;;;6.64;75.90
24336;BME280;33098;52.400;16.880;2023-02-18T08:31:23;100433.38;;;6.77;75.98
24336;BME280;33098;52.400;16.880;2023-02-18T08:33:52;100435.99;;;6.83;75.53
24336;BME280;33098;52.400;16.880;2023-02-18T08:36:19;100435.55;;;6.84;74.97
24336;BME280;33098;52.400;16.880;2023-02-18T08:38:46;100430.35;;;6.85;75.01
24336;BME280;33098;52.400;16.880;2023-02-18T08:41:13;100429.63;;;6.91;75.31
24336;BME280;33098;52.400;16.880;2023-02-18T08:43:41;100434.55;;;6.94;74.40
24336;BME280;33098;52.400;16.880;2023-02-18T08:46:08;100435.58;;;6.92;74.47
24336;BME280;33098;52.400;16.880;2023-02-18T08:48:34;100435.55;;;6.95;74.72
24336;BME280;33098;52.400;16.880;2023-02-18T08:51:19;100436.61;;;6.98;74.56
24336;BME280;33098;52.400;16.880;2023-02-18T08:53:47;100436.17;;;7.01;74.32
24336;BME280;33098;52.400;16.880;2023-02-18T08:56:14;100441.06;;;7.02;73.74
24336;BME280;33098;52.400;16.880;2023-02-18T08:58:43;100429.40;;;7.02;73.44
24336;BME280;33098;52.400;16.880;2023-02-18T09:01:10;100425.40;;;7.05;73.52
24336;BME280;33098;52.400;16.880;2023-02-18T09:03:38;100421.53;;;7.16;74.04
24336;BME280;33098;52.400;16.880;2023-02-18T09:06:05;100421.65;;;7.25;73.91
24336;BME280;33098;52.400;16.880;2023-02-18T09:08:32;100417.61;;;7.30;73.83
24336;BME280;33098;52.400;16.880;2023-02-18T09:11:00;100414.95;;;7.30;72.77
24336;BME280;33098;52.400;16.880;2023-02-18T09:13:27;100428.96;;;7.24;72.50
24336;BME280;33098;52.400;16.880;2023-02-18T09:16:01;100427.14;;;7.22;72.30
24336;BME280;33098;52.400;16.880;2023-02-18T09:18:30;100425.34;;;7.23;71.80
24336;BME280;33098;52.400;16.880;2023-02-18T09:20:58;100421.67;;;7.27;72.37
24336;BME280;33098;52.400;16.880;2023-02-18T09:23:28;100422.94;;;7.29;71.34
24336;BME280;33098;52.400;16.880;2023-02-18T09:25:56;100416.73;;;7.30;71.48
24336;BME280;33098;52.400;16.880;2023-02-18T09:28:23;100416.36;;;7.38;72.34
24336;BME280;33098;52.400;16.880;2023-02-18T09:30:51;100411.52;;;7.40;71.54
24336;BME280;33098;52.400;16.880;2023-02-18T09:33:18;100407.44;;;7.37;71.08
24336;BME280;33098;52.400;16.880;2023-02-18T09:35:45;100400.59;;;7.37;71.69
24336;BME280;33098;52.400;16.880;2023-02-18T09:38:15;100396.88;;;7.36;70.92
24336;BME280;33098;52.400;16.880;2023-02-18T09:40:48;100396.77;;;7.39;71.04
24336;BME280;33098;52.400;16.880;2023-02-18T09:43:22;100400.43;;;7.45;70.92
24336;BME280;33098;52.400;16.880;2023-02-18T09:45:52;100398.52;;;7.55;71.14
24336;BME280;33098;52.400;16.880;2023-02-18T09:48:27;100399.15;;;7.56;69.98
24336;BME280;33098;52.400;16.880;2023-02-18T09:50:56;100393.10;;;7.56;68.50
24336;BME280;33098;52.400;16.880;2023-02-18T09:53:24;100388.33;;;7.64;68.99
24336;BME280;33098;52.400;16.880;2023-02-18T09:55:53;100382.63;;;7.73;68.77
24336;BME280;33098;52.400;16.880;2023-02-18T09:58:22;100383.96;;;7.80;69.12
24336;BME280;33098;52.400;16.880;2023-02-18T10:01:04;100384.16;;;7.79;67.73
24336;BME280;33098;52.400;16.880;2023-02-18T10:03:32;100380.61;;;7.84;68.33
24336;BME280;33098;52.400;16.880;2023-02-18T10:06:08;100377.38;;;7.91;67.97
24336;BME280;33098;52.400;16.880;2023-02-18T10:08:38;100368.35;;;7.96;67.14
24336;BME280;33098;52.400;16.880;2023-02-18T10:11:30;100372.56;;;8.02;67.13
24336;BME280;33098;52.400;16.880;2023-02-18T10:13:58;100365.85;;;8.07;65.97
24336;BME280;33098;52.400;16.880;2023-02-18T10:16:29;100363.45;;;8.11;66.46
24336;BME280;33098;52.400;16.880;2023-02-18T10:19:02;100366.11;;;8.21;66.14
24336;BME280;33098;52.400;16.880;2023-02-18T10:21:32;100365.50;;;8.22;64.78
24336;BME280;33098;52.400;16.880;2023-02-18T10:24:11;100352.25;;;8.32;65.98
24336;BME280;33098;52.400;16.880;2023-02-18T10:26:40;100347.91;;;8.41;63.96
24336;BME280;33098;52.400;16.880;2023-02-18T10:29:16;100335.40;;;8.46;63.89
24336;BME280;33098;52.400;16.880;2023-02-18T10:31:55;100334.84;;;8.64;65.12
24336;BME280;33098;52.400;16.880;2023-02-18T10:34:29;100323.31;;;8.81;63.50
24336;BME280;33098;52.400;16.880;2023-02-18T10:37:25;100322.23;;;8.91;63.15
24336;BME280;33098;52.400;16.880;2023-02-18T10:40:11;100317.70;;;9.02;61.69
24336;BME280;33098;52.400;16.880;2023-02-18T10:42:59;100298.46;;;9.06;62.14
24336;BME280;33098;52.400;16.880;2023-02-18T10:51:28;100282.14;;;9.44;62.73
24336;BME280;33098;52.400;16.880;2023-02-18T10:53:57;100273.07;;;9.49;61.65
24336;BME280;33098;52.400;16.880;2023-02-18T10:56:40;100269.30;;;9.59;63.06
24336;BME280;33098;52.400;16.880;2023-02-18T10:59:13;100275.96;;;9.74;61.78
24336;BME280;33098;52.400;16.880;2023-02-18T11:01:44;100269.98;;;9.78;60.87
24336;BME280;33098;52.400;16.880;2023-02-18T11:04:24;100272.36;;;9.81;59.44
24336;BME280;33098;52.400;16.880;2023-02-18T11:06:51;100263.79;;;9.85;60.22
24336;BME280;33098;52.400;16.880;2023-02-18T11:09:28;100260.82;;;9.84;59.60
24336;BME280;33098;52.400;16.880;2023-02-18T11:12:01;100260.80;;;9.89;59.55
24336;BME280;33098;52.400;16.880;2023-02-18T11:14:46;100254.04;;;9.80;58.70
24336;BME280;33098;52.400;16.880;2023-02-18T11:17:25;100245.92;;;9.86;60.74
24336;BME280;33098;52.400;16.880;2023-02-18T11:19:58;100240.83;;;9.99;59.93
24336;BME280;33098;52.400;16.880;2023-02-18T11:22:31;100236.93;;;9.90;59.04
24336;BME280;33098;52.400;16.880;2023-02-18T11:25:17;100234.04;;;9.86;59.46
24336;BME280;33098;52.400;16.880;2023-02-18T11:27:47;100221.64;;;9.82;59.82
24336;BME280;33098;52.400;16.880;2023-02-18T11:30:34;100218.15;;;9.90;60.03
24336;BME280;33098;52.400;16.880;2023-02-18T11:33:22;100207.12;;;9.93;60.42
24336;BME280;33098;52.400;16.880;2023-02-18T11:35:52;100208.00;;;9.91;59.88
24336;BME280;33098;52.400;16.880;2023-02-18T11:38:34;100203.90;;;9.89;59.87
24336;BME280;33098;52.400;16.880;2023-02-18T11:41:28;100189.52;;;9.91;60.41
24336;BME280;33098;52.400;16.880;2023-02-18T11:43:56;100175.14;;;10.01;61.13
24336;BME280;33098;52.400;16.880;2023-02-18T11:46:25;100171.08;;;10.09;60.98
24336;BME280;33098;52.400;16.880;2023-02-18T11:48:53;100164.41;;;10.17;60.56
24336;BME280;33098;52.400;16.880;2023-02-18T11:54:02;100166.36;;;10.02;59.96
24336;BME280;33098;52.400;16.880;2023-02-18T11:56:32;100164.38;;;9.87;60.55
24336;BME280;33098;52.400;16.880;2023-02-18T11:59:00;100153.69;;;9.69;60.88
24336;BME280;33098;52.400;16.880;2023-02-18T12:01:34;100155.17;;;9.64;61.63
24336;BME280;33098;52.400;16.880;2023-02-18T12:06:40;100149.20;;;9.27;62.80
24336;BME280;33098;52.400;16.880;2023-02-18T12:09:29;100151.91;;;9.26;63.41
24336;BME280;33098;52.400;16.880;2023-02-18T12:12:04;100148.06;;;9.14;64.00
24336;BME280;33098;52.400;16.880;2023-02-18T12:14:32;100145.72;;;9.03;64.93
24336;BME280;33098;52.400;16.880;2023-02-18T12:25:00;100126.05;;;8.52;67.97
24336;BME280;33098;52.400;16.880;2023-02-18T12:27:39;100128.29;;;8.38;69.02
24336;BME280;33098;52.400;16.880;2023-02-18T12:32:50;100127.42;;;7.97;72.18
24336;BME280;33098;52.400;16.880;2023-02-18T12:38:10;100131.10;;;7.82;74.15
24336;BME280;33098;52.400;16.880;2023-02-18T12:49:08;100110.74;;;7.21;82.94
24336;BME280;33098;52.400;16.880;2023-02-18T12:51:53;100116.71;;;6.98;82.18
24336;BME280;33098;52.400;16.880;2023-02-18T12:54:45;100113.73;;;6.74;83.89
24336;BME280;33098;52.400;16.880;2023-02-18T13:00:37;100107.09;;;6.50;85.06
24336;BME280;33098;52.400;16.880;2023-02-18T13:06:24;100101.97;;;6.55;86.26
24336;BME280;33098;52.400;16.880;2023-02-18T13:14:49;100086.61;;;5.88;93.21
24336;BME280;33098;52.400;16.880;2023-02-18T13:17:18;100083.44;;;5.77;93.87
24336;BME280;33098;52.400;16.880;2023-02-18T13:19:53;100082.59;;;5.74;95.83
24336;BME280;33098;52.400;16.880;2023-02-18T13:22:23;100077.72;;;5.65;96.14
24336;BME280;33098;52.400;16.880;2023-02-18T13:24:53;100080.31;;;5.71;95.74
24336;BME280;33098;52.400;16.880;2023-02-18T13:27:35;100076.69;;;5.81;95.39
24336;BME280;33098;52.400;16.880;2023-02-18T13:30:22;100075.45;;;5.78;96.26
24336;BME280;33098;52.400;16.880;2023-02-18T13:33:02;100071.85;;;5.63;98.51
24336;BME280;33098;52.400;16.880;2023-02-18T13:40:57;100077.42;;;5.33;100.00
24336;BME280;33098;52.400;16.880;2023-02-18T13:43:33;100073.74;;;5.16;100.00
24336;BME280;33098;52.400;16.880;2023-02-18T13:48:44;100077.12;;;5.32;100.00
24336;BME280;33098;52.400;16.880;2023-02-18T13:51:25;100079.01;;;5.30;100.00
24336;BME280;33098;52.400;16.880;2023-02-18T13:56:46;100076.55;;;5.38;100.00
24336;BME280;33098;52.400;16.880;2023-02-18T14:00:14;100070.34;;;5.33;100.00
24336;BME280;33098;52.400;16.880;2023-02-18T14:04:56;100078.19;;;5.34;100.00
24336;BME280;33098;52.400;16.880;2023-02-18T14:10:00;100079.92;;;5.38;100.00
24336;BME280;33098;52.400;16.880;2023-02-18T14:12:38;100081.23;;;5.48;100.00
24336;BME280;33098;52.400;16.880;2023-02-18T14:31:05;100058.63;;;5.44;100.00
24336;BME280;33098;52.400;16.880;2023-02-18T14:36:45;100035.20;;;5.18;100.00
24336;BME280;33098;52.400;16.880;2023-02-18T14:41:56;100025.14;;;5.11;100.00
24336;BME280;33098;52.400;16.880;2023-02-18T14:47:24;100017.03;;;5.42;100.00
24336;BME280;33098;52.400;16.880;2023-02-18T14:49:55;100013.60;;;5.44;100.00
24336;BME280;33098;52.400;16.880;2023-02-18T14:52:29;100001.54;;;5.58;100.00
24336;BME280;33098;52.400;16.880;2023-02-18T14:54:59;99998.55;;;5.74;100.00
24336;BME280;33098;52.400;16.880;2023-02-18T14:57:33;99995.84;;;5.81;100.00
24336;BME280;33098;52.400;16.880;2023-02-18T15:00:02;99991.09;;;5.84;100.00
24336;BME280;33098;52.400;16.880;2023-02-18T15:02:35;99982.05;;;5.93;100.00
24336;BME280;33098;52.400;16.880;2023-02-18T15:05:12;99983.85;;;5.92;100.00
24336;BME280;33098;52.400;16.880;2023-02-18T15:07:38;99982.62;;;5.95;100.00
24336;BME280;33098;52.400;16.880;2023-02-18T15:10:12;99985.41;;;6.00;100.00